Sumas, Washington
Current Conditions -  °F | °C
As of 4:00 PM on Thursday 18 Dec 2014 (Local Time) from CYXX Reporting Station
Overcast Overcast  
Wind Chill: 39°   Ceiling: 3500
Heat Index: 43°   Visibility: 20mi
Dew Point: 43°   Wind: 6mph
Humidity: 100%   Direction: 50°NE
Pressure: 29.78"   Gusts: NA
Location:  49°N, 122.26°W
Report Text: CYXX 190000Z 05005KT 20SM FEW003 OVC035 06/06 A2978 RMK SF1SC7 INTMT -RA SLP086
Loading
Personal Weather Stations






























Interactive Weather Map New forecast layout! Learn more

10-Day Weather Forecast

Advertisements
Track Severe Weather on mobile